NCAR-RAP Real-Time Weather Data

Output produced by METARs form (21 May 2019  10:59 UTC)
found at http://weather.rap.ucar.edu/surface/
 
RJDC 211000Z 28006KT 250V010 9999 FEW030 19/10 Q1006
RJDC 210900Z 28007KT 250V310 9999 FEW040 BKN/// 20/09 Q1006
RJDC 210800Z 28008KT 250V350 9999 FEW035 BKN/// 21/08 Q1006
RJDC 210700Z 27014KT 9999 FEW035 SCT/// 22/11 Q1005
RJDC 210600Z 27016KT 9999 FEW030 SCT/// 22/11 Q1005
RJDC 210500Z 27015KT 9999 FEW030 SCT/// 22/11 Q1005
RJDC 210400Z 26015KT 9999 FEW030 SCT/// 21/11 Q1005
RJDC 210300Z 26014KT 9999 FEW015 BKN/// 22/12 Q1006
RJDC 210200Z 29007G17KT 250V360 9999 FEW020 SCT/// 22/11 Q1006
RJDC 210100Z 32005KT 250V060 9999 FEW020 SCT/// 21/10 Q1007
RJDC 210000Z 33006KT 260V020 9999 FEW020 SCT/// 19/10 Q1007
RJDC 202300Z 32004KT 250V060 9999 FEW030 BKN/// 17/10 Q1007
RJDC 202200Z VRB02KT 9999 FEW015 BKN/// 15/12 Q1007
RJDC 202130Z VRB02KT 9999 FEW020 BKN/// 14/12 Q1007
RJDC 201200Z 27008KT 9999 FEW010 BKN150 BKN/// 18/15 Q1005
RJDC 201100Z 27010KT 9999 -RA FEW010 SCT090 BKN120 18/13 Q1004
RJDC 201000Z 29008KT 260V320 9999 -RA FEW010 SCT020 BKN100 19/18 Q1003
RJDC 200900Z 29004KT 250V340 9999 -RA FEW007 SCT060 BKN090 19/19 Q1003
RJDC 200814Z 33004KT 270V030 9999 -SHRA FEW005 SCT040 BKN090 19/19 Q1003 RMK 1ST005 4CU040 6AC090 A2962
RJDC 200800Z 29006KT 260V320 5000 SHRA BR FEW004 SCT008 BKN035 19/18 Q1003
RJDC 200740Z 29007KT 260V320 5000 -SHRA BR FEW005 SCT008 BKN010 19/19 Q1003 RMK 1ST005 3ST008 5ST010 A2963
RJDC 200732Z 29008KT 260V330 3000 R07/1100VP1800U SHRA BR FEW004 SCT006 BKN008 19/19 Q1003 RMK 1ST004 3ST006 5ST008 A2963
RJDC 200713Z 28008KT 240V320 3000 R07/1000VP1800U SHRA BR FEW004 SCT006 BKN008 19/19 Q1003 RMK 2ST004 4ST006 6ST008 A2964
RJDC 200709Z 28009KT 240V320 2500 R07/0800V1800U SHRA BR FEW004 SCT006 BKN010 19/19 Q1003 RMK 2ST004 4ST006 6CU010 A2963
RJDC 200704Z 28011KT 240V310 1800 R07/0800V1700D +SHRA BR FEW004 SCT006 BKN010 19/19 Q1003 RMK 2ST004 4ST006 6CU010 A2963
RJDC 200703Z 28012KT 1800 R07/0800V1400D +SHRA BR FEW004 SCT006 BKN010 19/19 Q1003 RMK 2ST004 4ST006 6CU010 A2963
RJDC 200700Z 28012KT 1800 R07/0800V1400U +SHRA BR FEW004 SCT006 BKN010 19/19 Q1003
RJDC 200643Z 28009KT 2500 SHRA BR FEW004 SCT006 BKN025 19/19 Q1003 RMK 1ST004 3ST006 5CU025 A2963
RJDC 200637Z 29008KT 260V320 4000 -SHRA BR FEW005 SCT008 BKN025 19/19 Q1003 RMK 1ST005 3ST008 5CU025 A2962
RJDC 200600Z 30007KT 240V020 9000 -SHRA FEW005 SCT008 BKN025 19/19 Q1003
RJDC 200542Z 31008KT 260V350 5000 SHRA BR FEW005 SCT010 BKN025 19/19 Q1003 RMK 1ST005 3CU010 5CU025 A2962
RJDC 200534Z 29007KT 260V340 2500 R07/1200VP1800U SHRA BR FEW005 SCT010 BKN015 19/19 Q1003 RMK 1ST005 3CU010 5CU015 A2962
RJDC 200522Z 28010KT 250V320 2000 R07/0800VP1800U +SHRA FEW004 SCT008 BKN010 20/19 Q1003 RMK 1ST004 3ST008 6CU010 A2962 RI++
RJDC 200517Z 27010KT 3000 R07/0550VP1800U SHRA BR FEW004 SCT008 BKN010 20/20 Q1003 RMK 1ST004 3ST008 6CU010 A2963
RJDC 200511Z 28009KT 1800 R07/0550VP1800D +SHRA FEW004 SCT008 BKN010 21/20 Q1003 RMK 1ST004 3ST008 5CU010 A2963 RI++
RJDC 200509Z 22010KT 190V270 2000 +SHRA FEW004 SCT008 BKN010 21/20 Q1003 RMK 1ST004 3ST008 5CU010 A2962 RI++
RJDC 200500Z 12011KT 5000 -SHRA BR FEW005 SCT020 BKN025 21/21 Q1002
RJDC 200400Z 10014KT 9999 FEW005 SCT008 BKN040 21/20 Q1003
RJDC 200329Z 09016KT 9999 FEW005 SCT008 BKN015 21/20 Q1004 RMK 1ST005 3ST008 5CU015 A2966
RJDC 200300Z 09017KT 9999 FEW004 SCT005 BKN008 20/20 Q1004
RJDC 200200Z 09015KT 9999 -SHRA FEW004 SCT010 BKN015 18/18 Q1005
RJDC 200135Z 09014KT 4500 -SHRA BR FEW008 SCT010 BKN015 19/18 Q1005 RMK 1ST008 3CU010 6CU015 A2969
RJDC 200100Z 09013KT 9999 -SHRA FEW015 BKN020 BKN030 19/18 Q1005
RJDC 200000Z 11015KT 9999 FEW008 BKN020 BKN030 20/18 Q1006
RJDC 192300Z 10015KT 9999 -SHRA FEW010 BKN020 BKN030 20/18 Q1006
RJDC 192200Z 10014KT 9999 FEW015 SCT020 BKN030 19/17 Q1007
RJDC 192130Z 10014KT 9999 FEW015 SCT020 BKN030 19/18 Q1007
RJDC 191200Z 10016KT 9999 FEW015 BKN030 BKN040 19/18 Q1011
RJDC 191100Z 10015KT 9999 FEW015 SCT030 BKN040 19/18 Q1011
RJDC 191000Z 09014KT 9999 FEW015 SCT035 BKN045 19/18 Q1011
RJDC 190900Z 11015KT 9999 -SHRA FEW015 SCT025 BKN035 19/18 Q1011
RJDC 190800Z 10016KT 9999 -SHRA FEW025 BKN035 BKN050 20/18 Q1011
RJDC 190700Z 10018KT 9999 FEW025 SCT035 BKN050 20/18 Q1011
RJDC 190600Z 09017KT 9999 FEW025 BKN050 BKN100 21/18 Q1012
RJDC 190500Z 09015KT 9999 -SHRA FEW020 SCT035 BKN045 20/18 Q1012
RJDC 190400Z 10016KT 9999 -RA FEW020 SCT030 BKN090 20/18 Q1013
RJDC 190300Z 11014KT 9999 -RA FEW020 SCT045 BKN070 20/18 Q1013
RJDC 190200Z 11013KT 9999 -RA FEW020 SCT030 BKN090 20/18 Q1013
RJDC 190100Z 09016KT 9999 -RA FEW020 SCT030 BKN045 20/18 Q1013
RJDC 190000Z 10012KT 9999 -RA FEW025 SCT100 BKN120 21/17 Q1013
RJDC 182300Z 10014KT 9999 FEW025 SCT045 BKN/// 21/17 Q1013